Time;durP1;ratioP1;P1;durP2;ratioP2;P2;SDS_P1;SDS_P2;PMS_P1;PMS_P2;Temp;Humidity;BMP_temperature;BMP_pressure;BME280_temperature;BME280_humidity;BME280_pressure;Samples;Min_cycle;Max_cycle;Signal;HPM_P1;HPM_P2
2022/08/26 00:01:58;;;;;;;;;;;;;;;-144.99;96.55;52172.94;5024957;28;20281;-74
2022/08/26 00:04:25;;;;;;;;;;;;;;;-144.99;96.52;52113.84;5026472;28;19936;-72
2022/08/26 00:06:54;;;;;;;;;;;;;;;-144.99;96.57;52134.22;5025404;28;20023;-73
2022/08/26 00:09:20;;;;;;;;;;;;;;;-144.99;96.71;52134.22;5024837;28;19933;-72
2022/08/26 00:11:46;;;;;;;;;;;;;;;-144.99;97.88;52146.44;5021407;28;19936;-73
2022/08/26 00:14:13;;;;;;;;;;;;;;;-144.99;97.78;52146.44;5026348;28;19925;-72
2022/08/26 00:16:40;;;;;;;;;;;;;;;-144.99;98.49;52146.44;5025772;28;19929;-74
2022/08/26 00:19:06;;;;;;;;;;;;;;;-144.99;98.35;52134.22;5013360;28;20464;-72
2022/08/26 00:21:32;;;;;;;;;;;;;;;-144.99;98.81;52170.91;5025735;28;19944;-74
2022/08/26 00:24:00;;;;;;;;;;;;;;;-144.99;99.31;52121.97;5025415;28;19931;-73
2022/08/26 00:26:26;;;;;;;;;;;;;;;-144.99;99.62;52189.25;5023465;28;20304;-74
2022/08/26 00:28:53;;;;;;;;;;;;;;;-144.99;99.76;52162.75;5025338;28;19947;-73
2022/08/26 00:31:20;;;;;;;;;;;;;;;-144.99;99.63;52158.66;5024854;28;20006;-74
2022/08/26 00:33:46;;;;;;;;;;;;;;;-144.99;99.64;52146.44;5025507;28;19936;-76
2022/08/26 00:36:12;;;;;;;;;;;;;;;-144.99;99.69;52154.59;5025113;28;19929;-76
2022/08/26 00:38:39;;;;;;;;;;;;;;;-144.99;99.86;52162.75;5023363;28;19929;-75
2022/08/26 00:41:06;;;;;;;;;;;;;;;-144.99;99.57;52179.06;5018448;28;20456;-72
2022/08/26 00:43:34;;;;;;;;;;;;;;;-144.99;100.00;52158.66;5022177;28;19933;-73
2022/08/26 00:46:04;;;;;;;;;;;;;;;-144.99;100.00;52162.75;5021909;28;19933;-74
2022/08/26 00:48:32;;;;;;;;;;;;;;;-144.99;100.00;52162.75;5019600;28;19925;-74
2022/08/26 00:51:00;;;;;;;;;;;;;;;-144.99;100.00;52142.38;5018813;28;19928;-75
2022/08/26 00:53:30;;;;;;;;;;;;;;;-144.99;100.00;52187.19;5019871;28;19933;-75
2022/08/26 00:55:59;;;;;;;;;;;;;;;-144.99;100.00;52130.13;5022425;28;19935;-75
2022/08/26 00:58:29;;;;;;;;;;;;;;;-144.99;99.66;52174.97;5021815;28;19929;-75
2022/08/26 01:00:55;;;;;;;;;;;;;;;-144.99;99.95;52166.81;5019544;28;19963;-75
2022/08/26 01:03:24;;;;;;;;;;;;;;;-144.99;100.00;52121.97;5021138;28;20023;-75
2022/08/26 01:05:51;;;;;;;;;;;;;;;-144.99;100.00;52162.75;5021121;28;19929;-75
2022/08/26 01:08:18;;;;;;;;;;;;;;;-144.99;100.00;52170.91;5018197;28;19929;-75
2022/08/26 01:10:44;;;;;;;;;;;;;;;-144.99;100.00;52166.81;5020902;28;19936;-75
2022/08/26 01:13:12;;;;;;;;;;;;;;;-144.99;100.00;52154.59;5018282;28;19929;-75
2022/08/26 01:15:42;;;;;;;;;;;;;;;-144.99;100.00;52179.06;5020238;28;19929;-75
2022/08/26 01:18:09;;;;;;;;;;;;;;;-144.99;100.00;52158.66;5021379;28;20494;-75
2022/08/26 01:20:40;;;;;;;;;;;;;;;-144.99;100.00;52183.13;5022286;28;19929;-74
2022/08/26 01:23:09;;;;;;;;;;;;;;;-144.99;100.00;52166.81;5021856;28;19929;-74
2022/08/26 01:25:38;;;;;;;;;;;;;;;-144.99;100.00;52183.13;5021831;28;19935;-75
2022/08/26 01:28:07;;;;;;;;;;;;;;;-144.99;100.00;52179.06;5021681;28;19925;-75
2022/08/26 01:30:35;;;;;;;;;;;;;;;-144.99;100.00;52174.97;5021260;28;20019;-74
2022/08/26 01:33:03;;;;;;;;;;;;;;;-144.99;100.00;52158.66;5021669;28;19925;-72
2022/08/26 01:35:29;;;;;;;;;;;;;;;-144.99;100.00;52158.66;5022318;28;20375;-74
2022/08/26 01:37:56;;;;;;;;;;;;;;;-144.99;100.00;52179.06;5021711;28;20375;-74
2022/08/26 01:40:27;;;;;;;;;;;;;;;-144.99;100.00;52166.81;5018858;28;21222;-74
2022/08/26 01:42:54;;;;;;;;;;;;;;;-144.99;100.00;52166.81;5025270;28;19936;-75
2022/08/26 01:45:23;;;;;;;;;;;;;;;-144.99;100.00;52152.56;5025341;28;19944;-74
2022/08/26 01:47:52;;;;;;;;;;;;;;;-144.99;100.00;52166.81;5023624;28;19925;-74
2022/08/26 01:50:20;;;;;;;;;;;;;;;-144.99;100.00;52138.28;5024333;28;21774;-74
2022/08/26 01:52:47;;;;;;;;;;;;;;;-144.99;100.00;52154.59;5024908;28;19925;-74
2022/08/26 01:55:15;;;;;;;;;;;;;;;-144.99;100.00;52154.59;5024721;28;20095;-74
2022/08/26 01:57:44;;;;;;;;;;;;;;;-144.99;100.00;52174.97;5024756;28;19955;-74
2022/08/26 02:00:12;;;;;;;;;;;;;;;-144.99;100.00;52174.97;5024726;28;19979;-73
2022/08/26 02:02:38;;;;;;;;;;;;;;;-144.99;100.00;52130.13;5024587;28;19936;-73
2022/08/26 02:05:06;;;;;;;;;;;;;;;-144.99;100.00;52156.63;5024228;28;19929;-74
2022/08/26 02:07:33;;;;;;;;;;;;;;;-144.99;100.00;52162.75;5023643;28;20023;-75
2022/08/26 02:09:59;;;;;;;;;;;;;;;-144.99;100.00;52195.34;5024870;28;20570;-74
2022/08/26 02:12:26;;;;;;;;;;;;;;;-144.99;100.00;52187.19;5025130;28;19936;-74
2022/08/26 02:14:57;;;;;;;;;;;;;;;-144.99;100.00;52174.97;5024846;28;19933;-74
2022/08/26 02:17:26;;;;;;;;;;;;;;;-144.99;100.00;52164.78;5023279;28;19944;-73
2022/08/26 02:19:52;;;;;;;;;;;;;;;-144.99;100.00;52232.03;5025441;28;19939;-74
2022/08/26 02:22:20;;;;;;;;;;;;;;;-144.99;100.00;52152.56;5025735;28;20837;-75
2022/08/26 02:24:49;;;;;;;;;;;;;;;-144.99;100.00;52150.53;4677575;28;10000527;-76
2022/08/26 02:27:17;;;;;;;;;;;;;;;-144.99;100.00;52187.19;5034691;28;19929;-75
2022/08/26 02:29:47;;;;;;;;;;;;;;;-144.99;100.00;52179.06;5035641;28;20016;-76
2022/08/26 02:32:15;;;;;;;;;;;;;;;-144.99;100.00;52162.75;5032613;28;19929;-73
2022/08/26 02:34:41;;;;;;;;;;;;;;;-144.99;100.00;52191.28;5034737;28;19975;-76
2022/08/26 02:37:09;;;;;;;;;;;;;;;-144.99;100.00;52199.44;5036422;28;19929;-76
2022/08/26 02:39:37;;;;;;;;;;;;;;;-144.99;100.00;52183.13;5036276;28;20313;-76
2022/08/26 02:42:04;;;;;;;;;;;;;;;-144.99;100.00;52140.31;5036019;28;19925;-75
2022/08/26 02:44:30;;;;;;;;;;;;;;;-144.99;100.00;52191.28;5035945;28;20397;-75
2022/08/26 02:46:57;;;;;;;;;;;;;;;-144.99;100.00;52166.81;5034918;28;20075;-74
2022/08/26 02:49:25;;;;;;;;;;;;;;;-144.99;100.00;52191.28;5033580;28;20008;-74
2022/08/26 02:51:51;;;;;;;;;;;;;;;-144.99;100.00;52138.28;5032371;28;19925;-74
2022/08/26 02:54:18;;;;;;;;;;;;;;;-144.99;100.00;52179.06;5032882;28;19932;-75
2022/08/26 02:56:44;;;;;;;;;;;;;;;-144.99;100.00;52174.97;5027493;28;19931;-74
2022/08/26 02:59:12;;;;;;;;;;;;;;;-144.99;100.00;52172.94;5026215;28;19929;-75
2022/08/26 03:01:39;;;;;;;;;;;;;;;-144.99;100.00;52179.06;5026771;28;19932;-74
2022/08/26 03:04:08;;;;;;;;;;;;;;;-144.99;100.00;52215.75;5026889;28;20016;-75
2022/08/26 03:06:36;;;;;;;;;;;;;;;-144.99;100.00;52166.81;5027461;28;20020;-75
2022/08/26 03:09:03;;;;;;;;;;;;;;;-144.99;100.00;52187.19;5026078;28;19944;-74
2022/08/26 03:11:30;;;;;;;;;;;;;;;-144.99;100.00;52211.66;5027724;28;20016;-74
2022/08/26 03:13:57;;;;;;;;;;;;;;;-144.99;100.00;52179.06;5028482;28;19987;-76
2022/08/26 03:16:24;;;;;;;;;;;;;;;-144.99;100.00;52174.97;5027016;28;19965;-75
2022/08/26 03:18:50;;;;;;;;;;;;;;;-144.99;100.00;52162.75;5027897;28;19933;-75
2022/08/26 03:21:17;;;;;;;;;;;;;;;-144.99;100.00;52181.09;5027258;28;19925;-75
2022/08/26 03:23:45;;;;;;;;;;;;;;;-144.99;100.00;52181.09;5025877;28;19925;-74
2022/08/26 03:26:13;;;;;;;;;;;;;;;-144.99;100.00;52170.91;5025949;28;20347;-74
2022/08/26 03:30:38;;;;;;;;;;;;;;;-144.99;100.00;52166.81;5027148;28;20312;-75
2022/08/26 03:31:25;;;;;;;;;;;;;;;-144.99;100.00;52187.19;5027370;28;19925;-75
2022/08/26 03:33:51;;;;;;;;;;;;;;;-144.99;100.00;52174.97;5026011;28;19925;-75
2022/08/26 03:36:17;;;;;;;;;;;;;;;-144.99;100.00;52162.75;5026328;28;20020;-74
2022/08/26 03:38:45;;;;;;;;;;;;;;;-144.99;100.00;52191.28;5034863;28;19933;-73
2022/08/26 03:41:12;;;;;;;;;;;;;;;-144.99;100.00;52199.44;5031790;28;19932;-74
2022/08/26 03:43:39;;;;;;;;;;;;;;;-144.99;100.00;52207.59;5025484;28;20024;-76
2022/08/26 03:46:06;;;;;;;;;;;;;;;-144.99;100.00;52183.13;5027178;28;19929;-75
2022/08/26 03:48:32;;;;;;;;;;;;;;;-144.99;100.00;52158.66;5026509;28;19925;-75
2022/08/26 03:50:59;;;;;;;;;;;;;;;-144.99;100.00;52166.81;5027083;28;19924;-73
2022/08/26 03:53:25;;;;;;;;;;;;;;;-144.99;100.00;52164.78;5026383;28;19931;-74
2022/08/26 03:55:53;;;;;;;;;;;;;;;-144.99;100.00;52199.44;5028291;28;19931;-73
2022/08/26 03:58:20;;;;;;;;;;;;;;;-144.99;100.00;52183.13;5027355;28;20017;-72
2022/08/26 04:00:46;;;;;;;;;;;;;;;-144.99;100.00;52211.66;5026473;28;20004;-74
2022/08/26 04:03:13;;;;;;;;;;;;;;;-144.99;100.00;52174.97;5024692;28;20434;-74
2022/08/26 04:05:40;;;;;;;;;;;;;;;-144.99;100.00;52162.75;5025411;28;20313;-74
2022/08/26 04:08:06;;;;;;;;;;;;;;;-144.99;100.00;52181.09;5023600;28;19932;-74
2022/08/26 04:10:32;;;;;;;;;;;;;;;-144.99;100.00;52199.44;5025992;28;19925;-73
2022/08/26 04:13:01;;;;;;;;;;;;;;;-144.99;100.00;52195.34;5024711;28;20408;-75
2022/08/26 04:15:27;;;;;;;;;;;;;;;-144.99;100.00;52164.78;5024972;28;20323;-75
2022/08/26 04:17:54;;;;;;;;;;;;;;;-144.99;100.00;52183.13;5025208;28;19997;-74
2022/08/26 04:20:20;;;;;;;;;;;;;;;-144.99;100.00;52183.13;5024792;28;20024;-75
2022/08/26 04:22:47;;;;;;;;;;;;;;;-144.99;100.00;52203.50;5025439;28;19928;-73
2022/08/26 04:25:13;;;;;;;;;;;;;;;-144.99;100.00;52195.34;5025291;28;19925;-75
2022/08/26 04:27:39;;;;;;;;;;;;;;;-144.99;100.00;52234.09;5024909;28;19932;-75
2022/08/26 04:30:09;;;;;;;;;;;;;;;-144.99;100.00;52172.94;5024830;28;20578;-76
2022/08/26 04:32:36;;;;;;;;;;;;;;;-144.99;100.00;52209.63;5024467;28;19925;-74
2022/08/26 04:35:02;;;;;;;;;;;;;;;-144.99;100.00;52227.97;5025540;28;19929;-75
2022/08/26 04:37:30;;;;;;;;;;;;;;;-144.99;100.00;52191.28;5023960;28;19987;-75
2022/08/26 04:39:57;;;;;;;;;;;;;;;-144.99;100.00;52162.75;5025867;28;19955;-76
2022/08/26 04:42:23;;;;;;;;;;;;;;;-144.99;100.00;52183.13;5024461;28;19928;-77
2022/08/26 04:44:49;;;;;;;;;;;;;;;-144.99;100.00;52191.28;5021306;28;19929;-74
2022/08/26 04:47:17;;;;;;;;;;;;;;;-144.99;100.00;52158.66;5024160;28;20407;-74
2022/08/26 04:49:44;;;;;;;;;;;;;;;-144.99;100.00;52183.13;5025263;28;20008;-74
2022/08/26 04:52:10;;;;;;;;;;;;;;;-144.99;100.00;52146.44;5024899;28;19935;-75
2022/08/26 04:54:37;;;;;;;;;;;;;;;-144.99;100.00;52179.06;5025807;28;19929;-76
2022/08/26 04:57:03;;;;;;;;;;;;;;;-144.99;100.00;52213.69;5025449;28;20045;-76
2022/08/26 04:59:30;;;;;;;;;;;;;;;-144.99;100.00;52191.28;5026410;28;19925;-74
2022/08/26 05:01:58;;;;;;;;;;;;;;;-144.99;100.00;52183.13;5025957;28;20426;-76
2022/08/26 05:04:25;;;;;;;;;;;;;;;-144.99;100.00;52150.53;5031696;28;19933;-75
2022/08/26 05:06:52;;;;;;;;;;;;;;;-144.99;100.00;52205.53;5032195;28;20380;-76
2022/08/26 05:09:19;;;;;;;;;;;;;;;-144.99;100.00;52191.28;5027799;28;19933;-77
2022/08/26 05:11:46;;;;;;;;;;;;;;;-144.99;100.00;52179.06;5025633;28;19931;-75
2022/08/26 05:14:12;;;;;;;;;;;;;;;-144.99;100.00;52162.75;5026400;28;20067;-75
2022/08/26 05:16:39;;;;;;;;;;;;;;;-144.99;100.00;52170.91;5027430;28;20395;-76
2022/08/26 05:19:05;;;;;;;;;;;;;;;-144.99;100.00;52179.06;5030076;28;19935;-76
2022/08/26 05:21:33;;;;;;;;;;;;;;;-144.99;100.00;52174.97;5029576;28;19925;-77
2022/08/26 05:24:00;;;;;;;;;;;;;;;-144.99;100.00;52168.84;5032425;28;20368;-76
2022/08/26 05:26:28;;;;;;;;;;;;;;;-144.99;100.00;52189.25;5034641;28;19925;-75
2022/08/26 05:28:56;;;;;;;;;;;;;;;-144.99;100.00;52174.97;5028518;28;19929;-75
2022/08/26 05:31:23;;;;;;;;;;;;;;;-144.99;100.00;52174.97;5031263;28;19928;-75
2022/08/26 05:33:49;;;;;;;;;;;;;;;-144.99;100.00;52142.38;5028805;28;19929;-75
2022/08/26 05:36:17;;;;;;;;;;;;;;;-144.99;100.00;52166.81;5028855;28;19931;-75
2022/08/26 05:38:45;;;;;;;;;;;;;;;-144.99;100.00;52166.81;5028746;28;20455;-75
2022/08/26 05:41:16;;;;;;;;;;;;;;;-144.99;100.00;52170.91;5030259;28;19929;-76
2022/08/26 05:43:43;;;;;;;;;;;;;;;-144.99;100.00;52183.13;5030238;28;19929;-76
2022/08/26 05:46:09;;;;;;;;;;;;;;;-144.99;100.00;52142.38;5029168;28;19925;-74
2022/08/26 05:48:35;;;;;;;;;;;;;;;-144.99;100.00;52154.59;5029379;28;19951;-75
2022/08/26 05:51:03;;;;;;;;;;;;;;;-144.99;100.00;52126.06;5029803;28;19925;-75
2022/08/26 05:53:30;;;;;;;;;;;;;;;-144.99;100.00;52152.56;5029676;28;19979;-75
2022/08/26 05:55:58;;;;;;;;;;;;;;;-144.99;100.00;52115.88;5029132;28;19931;-74
2022/08/26 05:58:25;;;;;;;;;;;;;;;-144.99;100.00;52211.66;5028509;28;19967;-75
2022/08/26 06:00:56;;;;;;;;;;;;;;;-144.99;99.41;52138.28;5030277;28;19925;-75
2022/08/26 06:03:23;;;;;;;;;;;;;;;-144.99;99.16;52140.31;5029902;28;19947;-76
2022/08/26 06:05:49;;;;;;;;;;;;;;;-144.99;99.12;52126.06;5031949;28;20027;-76
2022/08/26 06:08:17;;;;;;;;;;;;;;;-144.99;98.75;52132.19;5032482;28;20063;-76
2022/08/26 06:10:47;;;;;;;;;;;;;;;-144.99;98.63;52119.94;5028537;28;19925;-73
2022/08/26 06:13:17;;;;;;;;;;;;;;;-144.99;98.15;52170.91;5028429;28;19938;-73
2022/08/26 06:15:44;;;;;;;;;;;;;;;-144.99;98.79;52193.31;5029200;28;20301;-74
2022/08/26 06:18:11;;;;;;;;;;;;;;;-144.99;99.13;52146.44;5028237;28;19956;-73
2022/08/26 06:20:42;;;;;;;;;;;;;;;-144.99;99.19;52170.91;5030161;28;19929;-72
2022/08/26 06:25:52;;;;;;;;;;;;;;;-144.99;97.87;52101.59;5030874;28;20781;-74
2022/08/26 06:28:20;;;;;;;;;;;;;;;-144.99;97.75;52150.53;5029754;28;19929;-75
2022/08/26 06:30:46;;;;;;;;;;;;;;;-144.99;96.85;52183.13;5030179;28;19924;-73
2022/08/26 06:33:13;;;;;;;;;;;;;;;-144.99;96.02;52164.78;5029854;28;20320;-75
2022/08/26 06:35:41;;;;;;;;;;;;;;;-144.99;96.36;52154.59;5028835;28;20401;-74
2022/08/26 06:38:08;;;;;;;;;;;;;;;-144.99;96.07;52117.91;5027521;28;19931;-73
2022/08/26 06:40:39;;;;;;;;;;;;;;;-144.99;96.35;52146.44;5028625;28;20012;-73
2022/08/26 06:43:06;;;;;;;;;;;;;;;-144.99;95.95;52174.97;5028038;28;19929;-76
2022/08/26 06:45:33;;;;;;;;;;;;;;;-144.99;95.11;52142.38;5027668;28;19932;-75
2022/08/26 06:48:00;;;;;;;;;;;;;;;-144.99;94.95;52183.13;5027258;28;20527;-74
2022/08/26 06:50:26;;;;;;;;;;;;;;;-144.99;95.51;52162.75;5028737;28;19929;-76
2022/08/26 06:52:53;;;;;;;;;;;;;;;-144.99;95.53;52174.97;5027818;28;19937;-73
2022/08/26 06:55:19;;;;;;;;;;;;;;;-144.99;95.39;52142.38;5028493;28;19925;-75
2022/08/26 06:57:45;;;;;;;;;;;;;;;-144.99;95.51;52154.59;5027286;28;19925;-73
2022/08/26 07:00:14;;;;;;;;;;;;;;;-144.99;95.18;52166.81;5026975;28;19933;-75
2022/08/26 07:02:41;;;;;;;;;;;;;;;-144.99;94.97;52162.75;5027641;28;19991;-72
2022/08/26 07:05:08;;;;;;;;;;;;;;;-144.99;95.04;52158.66;5031353;28;19983;-75
2022/08/26 07:07:35;;;;;;;;;;;;;;;-144.99;94.96;52183.13;5030150;28;20028;-75
2022/08/26 07:10:01;;;;;;;;;;;;;;;-144.99;95.60;52146.44;5031260;28;19979;-74
2022/08/26 07:12:28;;;;;;;;;;;;;;;-144.99;97.31;52162.75;5030742;28;19964;-75
2022/08/26 07:14:54;;;;;;;;;;;;;;;-144.99;98.09;52158.66;5031448;28;20485;-76
2022/08/26 07:17:20;;;;;;;;;;;;;;;-144.99;99.66;52172.94;5028408;28;19933;-77
2022/08/26 07:19:48;;;;;;;;;;;;;;;-144.99;100.00;52174.97;5036359;28;19964;-77
2022/08/26 07:22:15;;;;;;;;;;;;;;;-144.99;100.00;52179.06;5035138;28;20012;-76
2022/08/26 07:24:41;;;;;;;;;;;;;;;-144.99;100.00;52150.53;5035383;28;19925;-77
2022/08/26 07:27:09;;;;;;;;;;;;;;;-144.99;100.00;52211.66;5033162;28;20327;-75
2022/08/26 07:29:36;;;;;;;;;;;;;;;-144.99;100.00;52170.91;5025765;28;20021;-73
2022/08/26 07:32:03;;;;;;;;;;;;;;;-144.99;100.00;52162.75;5029859;28;19961;-73
2022/08/26 07:34:30;;;;;;;;;;;;;;;-144.99;100.00;52183.13;5028187;28;20292;-73
2022/08/26 07:36:59;;;;;;;;;;;;;;;-144.99;100.00;52162.75;5027366;28;19968;-73
2022/08/26 07:39:26;;;;;;;;;;;;;;;-144.99;100.00;52191.28;5026908;28;19929;-73
2022/08/26 07:41:52;;;;;;;;;;;;;;;-144.99;100.00;52162.75;5026935;28;19925;-73
2022/08/26 07:44:19;;;;;;;;;;;;;;;-144.99;100.00;52166.81;5027131;28;19929;-72
2022/08/26 07:46:46;;;;;;;;;;;;;;;-144.99;100.00;52150.53;5025630;28;20400;-73
2022/08/26 07:49:12;;;;;;;;;;;;;;;-144.99;100.00;52201.47;5025752;28;19925;-74
2022/08/26 07:51:39;;;;;;;;;;;;;;;-144.99;100.00;52148.47;5027363;28;20013;-73
2022/08/26 07:54:07;;;;;;;;;;;;;;;-144.99;100.00;52187.19;5027280;28;19965;-73
2022/08/26 07:56:33;;;;;;;;;;;;;;;-144.99;100.00;52215.75;5026443;28;19932;-72
2022/08/26 07:59:00;;;;;;;;;;;;;;;-144.99;100.00;52211.66;5026718;28;19925;-75
2022/08/26 08:01:28;;;;;;;;;;;;;;;-144.99;100.00;52179.06;5030101;28;19925;-77
2022/08/26 08:03:55;;;;;;;;;;;;;;;-144.99;100.00;52211.66;5031512;28;19926;-80
2022/08/26 08:06:23;;;;;;;;;;;;;;;-144.99;100.00;52170.91;5040956;28;19933;-79
2022/08/26 08:08:50;;;;;;;;;;;;;;;-144.99;100.00;52170.91;5043768;28;19926;-81
2022/08/26 08:11:20;;;;;;;;;;;;;;;-144.99;100.00;52170.91;5041579;28;19936;-80
2022/08/26 08:13:47;;;;;;;;;;;;;;;-144.99;100.00;52219.81;5043234;28;19925;-80
2022/08/26 08:16:13;;;;;;;;;;;;;;;-144.99;100.00;52203.50;5042467;28;19926;-80
2022/08/26 08:18:40;;;;;;;;;;;;;;;-144.99;100.00;52187.19;5040702;28;21137;-78
2022/08/26 08:21:06;;;;;;;;;;;;;;;-144.99;100.00;52191.28;5035759;28;19925;-78
2022/08/26 08:23:33;;;;;;;;;;;;;;;-144.99;100.00;52203.50;5038096;28;19961;-79
2022/08/26 08:26:00;;;;;;;;;;;;;;;-144.99;100.00;52185.16;5040160;28;19980;-77
2022/08/26 08:28:28;;;;;;;;;;;;;;;-144.99;100.00;52195.34;5036535;28;19929;-77
2022/08/26 08:30:55;;;;;;;;;;;;;;;-144.99;100.00;52197.41;5037519;28;19964;-78
2022/08/26 08:33:21;;;;;;;;;;;;;;;-144.99;100.00;52232.03;5036186;28;19933;-78
2022/08/26 08:35:48;;;;;;;;;;;;;;;-144.99;100.00;52248.34;5031857;28;20004;-78
2022/08/26 08:38:14;;;;;;;;;;;;;;;-144.99;100.00;52191.28;4337222;28;10020791;-79
2022/08/26 08:40:41;;;;;;;;;;;;;;;-144.99;100.00;52199.44;5028322;28;19925;-77
2022/08/26 08:43:09;;;;;;;;;;;;;;;-144.99;100.00;52181.09;5028691;28;19936;-77
2022/08/26 08:45:39;;;;;;;;;;;;;;;-144.99;100.00;52213.69;5025538;28;19967;-77
2022/08/26 08:48:09;;;;;;;;;;;;;;;-144.99;100.00;52203.50;5030246;28;20056;-78
2022/08/26 08:50:40;;;;;;;;;;;;;;;-144.99;100.00;52227.97;5030117;28;20477;-77
2022/08/26 08:53:12;;;;;;;;;;;;;;;-144.99;100.00;52223.88;5024833;28;20011;-77
2022/08/26 08:55:44;;;;;;;;;;;;;;;-144.99;100.00;52201.47;5026652;28;19990;-78
2022/08/26 08:58:14;;;;;;;;;;;;;;;-144.99;100.00;52215.75;5033023;28;19929;-78
2022/08/26 09:00:50;;;;;;;;;;;;;;;-144.99;100.00;52230.00;5035740;28;20371;-77
2022/08/26 09:03:23;;;;;;;;;;;;;;;-144.99;99.39;52246.31;5036939;28;19929;-78
2022/08/26 09:05:51;;;;;;;;;;;;;;;-144.99;97.40;52213.69;5035483;28;19929;-77
2022/08/26 09:08:19;;;;;;;;;;;;;;;-144.99;95.60;52162.75;5040730;28;20027;-77
2022/08/26 09:10:47;;;;;;;;;;;;;;;-144.99;95.24;52227.97;5046825;28;19953;-77
2022/08/26 09:13:14;;;;;;;;;;;;;;;-144.99;93.28;52213.69;5033992;28;19936;-76
2022/08/26 09:15:50;;;;;;;;;;;;;;;-144.99;92.47;52197.41;5035886;28;19989;-75
2022/08/26 09:18:22;;;;;;;;;;;;;;;-144.99;92.37;52207.59;5027027;28;19934;-77
2022/08/26 09:20:51;;;;;;;;;;;;;;;-144.99;91.64;52219.81;5032698;28;19929;-77
2022/08/26 09:23:18;;;;;;;;;;;;;;;-144.99;94.13;52199.44;5031806;28;19933;-79
2022/08/26 09:25:46;;;;;;;;;;;;;;;-144.99;96.05;52193.31;5035989;28;19929;-77
2022/08/26 09:28:15;;;;;;;;;;;;;;;-144.99;97.02;52187.19;5024497;28;20017;-77
2022/08/26 09:30:45;;;;;;;;;;;;;;;-144.99;98.77;52195.34;5025332;28;20042;-78
2022/08/26 09:33:16;;;;;;;;;;;;;;;-144.99;100.00;52203.50;5027777;28;19968;-78
2022/08/26 09:35:45;;;;;;;;;;;;;;;-144.99;100.00;52217.78;5026856;28;19929;-76
2022/08/26 09:38:20;;;;;;;;;;;;;;;-144.99;100.00;52248.34;5028033;28;19929;-79
2022/08/26 09:40:54;;;;;;;;;;;;;;;-144.99;100.00;52223.88;5031179;28;19935;-78
2022/08/26 09:43:20;;;;;;;;;;;;;;;-144.99;100.00;52174.97;5032862;28;19987;-78
2022/08/26 09:45:47;;;;;;;;;;;;;;;-144.99;100.00;52201.47;5025899;28;19997;-78
2022/08/26 09:48:26;;;;;;;;;;;;;;;-144.99;100.00;52199.44;5029613;28;20430;-77
2022/08/26 09:50:54;;;;;;;;;;;;;;;-144.99;100.00;52195.34;5029510;28;19925;-76
2022/08/26 09:53:21;;;;;;;;;;;;;;;-144.99;100.00;52215.75;5028430;28;19925;-77
2022/08/26 09:55:49;;;;;;;;;;;;;;;-144.99;100.00;52191.28;5022586;28;20497;-80
2022/08/26 09:58:17;;;;;;;;;;;;;;;-144.99;100.00;52183.13;5019477;28;19931;-77
2022/08/26 10:00:53;;;;;;;;;;;;;;;-144.99;100.00;52219.81;5036497;28;20016;-77
2022/08/26 10:03:24;;;;;;;;;;;;;;;-144.99;100.00;52223.88;4991756;28;20305;-78
2022/08/26 10:05:57;;;;;;;;;;;;;;;-144.99;100.00;52183.13;5015003;28;20316;-79
2022/08/26 10:08:28;;;;;;;;;;;;;;;-144.99;100.00;52195.34;5014740;28;20012;-77
2022/08/26 10:10:56;;;;;;;;;;;;;;;-144.99;100.00;52179.06;5012774;28;19965;-77
2022/08/26 10:13:24;;;;;;;;;;;;;;;-144.99;100.00;52191.28;5017459;28;19935;-77
2022/08/26 10:15:55;;;;;;;;;;;;;;;-144.99;100.00;52174.97;5026591;28;19961;-78
2022/08/26 10:18:24;;;;;;;;;;;;;;;-144.99;100.00;52197.41;5019560;28;19913;-78
2022/08/26 10:20:54;;;;;;;;;;;;;;;-144.99;100.00;52183.13;5027327;28;19952;-78
2022/08/26 10:23:25;;;;;;;;;;;;;;;-144.99;100.00;52187.19;5024374;28;19928;-78
2022/08/26 10:25:53;;;;;;;;;;;;;;;-144.99;100.00;52166.81;5033308;28;19926;-80
2022/08/26 10:28:25;;;;;;;;;;;;;;;-144.99;100.00;52191.28;5035281;28;19952;-79
2022/08/26 10:30:56;;;;;;;;;;;;;;;-144.99;100.00;52150.53;5037799;28;19914;-80
2022/08/26 10:33:23;;;;;;;;;;;;;;;-144.99;100.00;52166.81;5035330;28;19922;-78
2022/08/26 10:35:51;;;;;;;;;;;;;;;-144.99;100.00;52146.44;5040027;23;20008;-78
2022/08/26 10:38:19;;;;;;;;;;;;;;;-144.99;100.00;52174.97;4986616;28;19929;-80
2022/08/26 10:40:51;;;;;;;;;;;;;;;-144.99;100.00;52195.34;4988419;28;20036;-80
2022/08/26 10:43:21;;;;;;;;;;;;;;;-144.99;100.00;52170.91;4994663;28;19926;-81
2022/08/26 10:45:50;;;;;;;;;;;;;;;-144.99;100.00;52146.44;4996338;28;19926;-80
2022/08/26 10:48:19;;;;;;;;;;;;;;;-144.99;100.00;52101.59;4995278;28;19925;-80
2022/08/26 10:50:47;;;;;;;;;;;;;;;-144.99;100.00;52126.06;4990857;28;19926;-80
2022/08/26 10:53:16;;;;;;;;;;;;;;;-144.99;100.00;52130.13;5000137;28;19989;-79
2022/08/26 10:55:50;;;;;;;;;;;;;;;-144.99;100.00;52142.38;5007799;28;19925;-76
2022/08/26 10:58:41;;;;;;;;;;;;;;;-144.99;100.00;52166.81;4986771;28;19950;-75
2022/08/26 11:03:59;;;;;;;;;;;;;;;-144.99;100.00;52146.44;4991587;28;19936;-77
2022/08/26 11:06:27;;;;;;;;;;;;;;;-144.99;100.00;52138.28;4988981;28;19933;-79
2022/08/26 11:08:55;;;;;;;;;;;;;;;-144.99;100.00;52146.44;4988523;28;19926;-79
2022/08/26 11:11:40;;;;;;;;;;;;;;;-144.99;100.00;52130.13;4988646;28;19934;-77
2022/08/26 11:14:08;;;;;;;;;;;;;;;-144.99;100.00;52134.22;4991704;28;20028;-81
2022/08/26 11:16:36;;;;;;;;;;;;;;;-144.99;100.00;52138.28;4986393;28;19930;-78
2022/08/26 11:19:02;;;;;;;;;;;;;;;-144.99;100.00;52183.13;4990348;28;20008;-78
2022/08/26 11:21:47;;;;;;;;;;;;;;;-144.99;100.00;52170.91;4990193;28;20416;-79
2022/08/26 11:24:32;;;;;;;;;;;;;;;-144.99;100.00;52126.06;4990147;28;19930;-79
2022/08/26 11:26:59;;;;;;;;;;;;;;;-144.99;100.00;52154.59;4988759;28;19926;-80
2022/08/26 11:29:41;;;;;;;;;;;;;;;-144.99;100.00;52121.97;4990333;28;19933;-81
2022/08/26 11:32:22;;;;;;;;;;;;;;;-144.99;100.00;52121.97;4974912;28;19937;-79
2022/08/26 11:34:54;;;;;;;;;;;;;;;-144.99;100.00;52121.97;4991758;28;20016;-76
2022/08/26 11:37:22;;;;;;;;;;;;;;;-144.99;100.00;52097.53;4983327;28;19944;-79
2022/08/26 11:39:50;;;;;;;;;;;;;;;-144.99;100.00;52126.06;4991088;28;19926;-80
2022/08/26 11:42:19;;;;;;;;;;;;;;;-144.99;100.00;52142.38;4301929;28;10021877;-79
2022/08/26 11:44:45;;;;;;;;;;;;;;;-144.99;99.63;52109.75;4980874;28;20028;-79
2022/08/26 11:47:16;;;;;;;;;;;;;;;-144.99;99.53;52140.31;4984038;28;19937;-78
2022/08/26 11:49:43;;;;;;;;;;;;;;;-144.99;98.82;52093.44;4979670;28;19930;-79
2022/08/26 11:52:10;;;;;;;;;;;;;;;-144.99;97.85;52119.94;4982916;28;19930;-80
2022/08/26 11:54:37;;;;;;;;;;;;;;;-144.99;97.27;52093.44;4980406;28;19973;-78
2022/08/26 11:57:05;;;;;;;;;;;;;;;-144.99;96.87;52081.22;4981922;28;20321;-79
2022/08/26 11:59:35;;;;;;;;;;;;;;;-144.99;94.34;52075.09;4976013;28;20556;-80
2022/08/26 12:02:01;;;;;;;;;;;;;;;-144.99;91.89;52091.41;4988979;28;19929;-81
2022/08/26 12:04:30;;;;;;;;;;;;;;;-144.99;89.90;52064.91;4990833;28;19977;-80
2022/08/26 12:06:59;;;;;;;;;;;;;;;-144.99;87.33;52077.16;4982522;28;19952;-77
2022/08/26 12:09:27;;;;;;;;;;;;;;;-144.99;85.77;52056.78;4988888;28;20031;-80
2022/08/26 12:12:08;;;;;;;;;;;;;;;-144.99;82.92;52038.44;5000235;28;19965;-79
2022/08/26 12:14:35;;;;;;;;;;;;;;;-144.99;81.61;52022.13;5004195;28;19937;-79
2022/08/26 12:17:08;;;;;;;;;;;;;;;-144.99;79.83;52003.78;4982664;28;20012;-79
2022/08/26 12:19:35;;;;;;;;;;;;;;;-144.99;76.82;52007.84;4981361;28;20361;-78
2022/08/26 12:22:04;;;;;;;;;;;;;;;-144.99;73.96;51983.41;4984386;28;20001;-79
2022/08/26 12:24:30;;;;;;;;;;;;;;;-144.99;73.07;52016.00;5009782;28;20085;-79
2022/08/26 12:27:07;;;;;;;;;;;;;;;-144.99;73.02;51999.69;5001699;28;19986;-78
2022/08/26 12:29:34;;;;;;;;;;;;;;;-144.99;71.95;52007.84;5002132;28;19921;-80
2022/08/26 12:32:07;;;;;;;;;;;;;;;-144.99;72.38;51983.41;4996762;28;19942;-78